Terminal Aerodrome Forecast
Issued by NWS Duluth, MN

Home | Current Version | Previous Version | Text Only | Print | Product List | Glossary On
Versions: 1 2 3 4 5 6 7 8 9 10 11 12 13 14 15 16 17 18 19 20 21 22 23 24
216
FTUS43 KDLH 251725
TAFINL
TAF
KINL 251725Z 2518/2618 02012KT P6SM OVC010
     FM260000 03014G21KT P6SM OVC007
     FM260600 04015G23KT 3SM -SN OVC007
     FM261200 04018G25KT 2SM -SN OVC007=

USA.gov is the U.S. government's official web portal to all federal, state and local government web resources and services.